sensor_id;sensor_type;location;lat;lon;timestamp;pressure;altitude;pressure_sealevel;temperature;humidity
54512;BME280;40419;47.438;19.026;2023-01-26T00:01:19;100598.00;;;1.55;100.00
54512;BME280;40419;47.438;19.026;2023-01-26T00:03:46;100590.56;;;1.58;100.00
54512;BME280;40419;47.438;19.026;2023-01-26T00:06:16;100594.50;;;1.54;100.00
54512;BME280;40419;47.438;19.026;2023-01-26T00:08:47;100590.88;;;1.44;100.00
54512;BME280;40419;47.438;19.026;2023-01-26T00:11:18;100587.63;;;1.40;100.00
54512;BME280;40419;47.438;19.026;2023-01-26T00:13:52;100587.72;;;1.50;100.00
54512;BME280;40419;47.438;19.026;2023-01-26T00:16:21;100581.91;;;1.45;100.00
54512;BME280;40419;47.438;19.026;2023-01-26T00:18:48;100583.34;;;1.49;100.00
54512;BME280;40419;47.438;19.026;2023-01-26T00:21:19;100586.25;;;1.46;100.00
54512;BME280;40419;47.438;19.026;2023-01-26T00:23:46;100573.91;;;1.45;100.00
54512;BME280;40419;47.438;19.026;2023-01-26T00:26:19;100576.81;;;1.42;100.00
54512;BME280;40419;47.438;19.026;2023-01-26T00:28:49;100585.53;;;1.44;100.00
54512;BME280;40419;47.438;19.026;2023-01-26T00:31:27;100573.78;;;1.47;100.00
54512;BME280;40419;47.438;19.026;2023-01-26T00:33:54;100578.72;;;1.51;100.00
54512;BME280;40419;47.438;19.026;2023-01-26T00:36:19;100573.72;;;1.58;100.00
54512;BME280;40419;47.438;19.026;2023-01-26T00:38:46;100577.75;;;1.52;100.00
54512;BME280;40419;47.438;19.026;2023-01-26T00:41:12;100582.56;;;1.58;100.00
54512;BME280;40419;47.438;19.026;2023-01-26T00:43:59;100575.69;;;1.56;100.00
54512;BME280;40419;47.438;19.026;2023-01-26T00:46:28;100583.94;;;1.53;100.00
54512;BME280;40419;47.438;19.026;2023-01-26T00:48:53;100578.94;;;1.59;100.00
54512;BME280;40419;47.438;19.026;2023-01-26T00:51:21;100575.56;;;1.57;100.00
54512;BME280;40419;47.438;19.026;2023-01-26T00:53:49;100559.53;;;1.57;100.00
54512;BME280;40419;47.438;19.026;2023-01-26T00:56:14;100558.41;;;1.60;100.00
54512;BME280;40419;47.438;19.026;2023-01-26T00:58:43;100564.75;;;1.59;100.00
54512;BME280;40419;47.438;19.026;2023-01-26T01:01:10;100562.78;;;1.61;100.00
54512;BME280;40419;47.438;19.026;2023-01-26T01:03:37;100553.84;;;1.51;100.00
54512;BME280;40419;47.438;19.026;2023-01-26T01:06:04;100567.19;;;1.51;100.00
54512;BME280;40419;47.438;19.026;2023-01-26T01:08:32;100564.00;;;1.57;100.00
54512;BME280;40419;47.438;19.026;2023-01-26T01:11:08;100564.06;;;1.46;100.00
54512;BME280;40419;47.438;19.026;2023-01-26T01:13:37;100564.78;;;1.48;100.00
54512;BME280;40419;47.438;19.026;2023-01-26T01:16:08;100557.78;;;1.47;100.00
54512;BME280;40419;47.438;19.026;2023-01-26T01:18:34;100549.03;;;1.45;100.00
54512;BME280;40419;47.438;19.026;2023-01-26T01:21:10;100552.19;;;1.50;100.00
54512;BME280;40419;47.438;19.026;2023-01-26T01:23:36;100550.47;;;1.49;100.00
54512;BME280;40419;47.438;19.026;2023-01-26T01:26:10;100550.09;;;1.53;100.00
54512;BME280;40419;47.438;19.026;2023-01-26T01:28:39;100542.47;;;1.49;100.00
54512;BME280;40419;47.438;19.026;2023-01-26T01:31:10;100535.22;;;1.39;100.00
54512;BME280;40419;47.438;19.026;2023-01-26T01:33:41;100542.72;;;1.46;100.00
54512;BME280;40419;47.438;19.026;2023-01-26T01:36:10;100539.66;;;1.50;100.00
54512;BME280;40419;47.438;19.026;2023-01-26T01:38:38;100543.78;;;1.54;100.00
54512;BME280;40419;47.438;19.026;2023-01-26T01:41:05;100535.38;;;1.27;100.00
54512;BME280;40419;47.438;19.026;2023-01-26T01:43:30;100538.16;;;1.36;100.00
54512;BME280;40419;47.438;19.026;2023-01-26T01:45:59;100536.94;;;1.40;100.00
54512;BME280;40419;47.438;19.026;2023-01-26T01:51:10;100535.66;;;1.56;100.00
54512;BME280;40419;47.438;19.026;2023-01-26T01:53:40;100533.41;;;1.40;100.00
54512;BME280;40419;47.438;19.026;2023-01-26T01:56:15;100530.47;;;1.43;100.00
54512;BME280;40419;47.438;19.026;2023-01-26T01:58:52;100521.66;;;1.31;100.00
54512;BME280;40419;47.438;19.026;2023-01-26T02:01:20;100529.50;;;1.44;100.00
54512;BME280;40419;47.438;19.026;2023-01-26T02:03:50;100524.69;;;1.38;100.00
54512;BME280;40419;47.438;19.026;2023-01-26T02:06:47;100511.50;;;1.25;100.00
54512;BME280;40419;47.438;19.026;2023-01-26T02:09:15;100513.03;;;1.39;100.00
54512;BME280;40419;47.438;19.026;2023-01-26T02:12:07;100503.75;;;1.22;100.00
54512;BME280;40419;47.438;19.026;2023-01-26T02:14:38;100506.91;;;1.16;100.00
54512;BME280;40419;47.438;19.026;2023-01-26T02:17:08;100498.84;;;1.06;100.00
54512;BME280;40419;47.438;19.026;2023-01-26T02:20:04;100498.63;;;1.30;100.00
54512;BME280;40419;47.438;19.026;2023-01-26T02:25:11;100495.22;;;1.28;100.00
54512;BME280;40419;47.438;19.026;2023-01-26T02:27:45;100491.41;;;1.21;100.00
54512;BME280;40419;47.438;19.026;2023-01-26T02:30:11;100495.91;;;1.09;100.00
54512;BME280;40419;47.438;19.026;2023-01-26T02:32:45;100487.03;;;1.09;100.00
54512;BME280;40419;47.438;19.026;2023-01-26T02:35:13;100478.47;;;1.05;100.00
54512;BME280;40419;47.438;19.026;2023-01-26T02:37:39;100474.06;;;1.15;100.00
54512;BME280;40419;47.438;19.026;2023-01-26T02:40:12;100479.47;;;1.25;100.00
54512;BME280;40419;47.438;19.026;2023-01-26T02:42:42;100468.59;;;1.17;100.00
54512;BME280;40419;47.438;19.026;2023-01-26T02:45:14;100465.16;;;1.26;100.00
54512;BME280;40419;47.438;19.026;2023-01-26T02:47:43;100467.97;;;1.24;100.00
54512;BME280;40419;47.438;19.026;2023-01-26T02:50:10;100460.09;;;1.23;100.00
54512;BME280;40419;47.438;19.026;2023-01-26T02:52:36;100464.22;;;1.16;100.00
54512;BME280;40419;47.438;19.026;2023-01-26T02:55:12;100454.22;;;1.08;100.00
54512;BME280;40419;47.438;19.026;2023-01-26T02:57:47;100455.97;;;1.19;100.00
54512;BME280;40419;47.438;19.026;2023-01-26T03:00:26;100447.72;;;1.22;100.00
54512;BME280;40419;47.438;19.026;2023-01-26T03:02:57;100438.56;;;1.15;100.00
54512;BME280;40419;47.438;19.026;2023-01-26T03:05:27;100435.94;;;1.24;100.00
54512;BME280;40419;47.438;19.026;2023-01-26T03:07:55;100437.91;;;1.22;100.00
54512;BME280;40419;47.438;19.026;2023-01-26T03:10:23;100441.81;;;1.18;100.00
54512;BME280;40419;47.438;19.026;2023-01-26T03:12:53;100441.31;;;1.13;100.00
54512;BME280;40419;47.438;19.026;2023-01-26T03:15:24;100433.13;;;1.05;100.00
54512;BME280;40419;47.438;19.026;2023-01-26T03:18:11;100436.25;;;1.10;100.00
54512;BME280;40419;47.438;19.026;2023-01-26T03:20:59;100433.97;;;1.05;100.00
54512;BME280;40419;47.438;19.026;2023-01-26T03:23:46;100436.50;;;1.07;100.00
54512;BME280;40419;47.438;19.026;2023-01-26T03:26:34;100429.44;;;1.17;100.00
54512;BME280;40419;47.438;19.026;2023-01-26T03:29:20;100419.47;;;0.98;100.00
54512;BME280;40419;47.438;19.026;2023-01-26T03:31:46;100418.69;;;1.08;100.00
54512;BME280;40419;47.438;19.026;2023-01-26T03:34:14;100422.25;;;0.97;100.00
54512;BME280;40419;47.438;19.026;2023-01-26T03:36:43;100414.06;;;1.10;100.00
54512;BME280;40419;47.438;19.026;2023-01-26T03:39:15;100403.97;;;1.13;100.00
54512;BME280;40419;47.438;19.026;2023-01-26T03:42:04;100409.31;;;1.13;100.00
54512;BME280;40419;47.438;19.026;2023-01-26T03:44:48;100410.44;;;1.11;100.00
54512;BME280;40419;47.438;19.026;2023-01-26T03:47:35;100400.03;;;1.08;100.00
54512;BME280;40419;47.438;19.026;2023-01-26T03:50:23;100404.44;;;0.97;100.00
54512;BME280;40419;47.438;19.026;2023-01-26T03:53:18;100398.19;;;1.08;100.00
54512;BME280;40419;47.438;19.026;2023-01-26T03:56:08;100405.81;;;1.13;100.00
54512;BME280;40419;47.438;19.026;2023-01-26T03:58:45;100393.41;;;0.91;100.00
54512;BME280;40419;47.438;19.026;2023-01-26T04:01:15;100384.19;;;0.95;100.00
54512;BME280;40419;47.438;19.026;2023-01-26T04:03:56;100394.03;;;0.94;100.00
54512;BME280;40419;47.438;19.026;2023-01-26T04:06:46;100389.50;;;1.06;100.00
54512;BME280;40419;47.438;19.026;2023-01-26T04:09:31;100393.41;;;0.91;100.00
54512;BME280;40419;47.438;19.026;2023-01-26T04:12:02;100387.13;;;0.92;100.00
54512;BME280;40419;47.438;19.026;2023-01-26T04:14:31;100393.50;;;1.00;100.00
54512;BME280;40419;47.438;19.026;2023-01-26T04:17:18;100386.78;;;0.85;100.00
54512;BME280;40419;47.438;19.026;2023-01-26T04:20:04;100385.25;;;1.03;100.00
54512;BME280;40419;47.438;19.026;2023-01-26T04:22:49;100383.88;;;0.88;100.00
54512;BME280;40419;47.438;19.026;2023-01-26T04:25:19;100378.78;;;0.85;100.00
54512;BME280;40419;47.438;19.026;2023-01-26T04:27:47;100376.72;;;0.88;100.00
54512;BME280;40419;47.438;19.026;2023-01-26T04:30:14;100380.25;;;0.78;100.00
54512;BME280;40419;47.438;19.026;2023-01-26T04:32:41;100365.75;;;0.70;100.00
54512;BME280;40419;47.438;19.026;2023-01-26T04:35:15;100371.13;;;0.92;100.00
54512;BME280;40419;47.438;19.026;2023-01-26T04:37:46;100371.47;;;0.66;100.00
54512;BME280;40419;47.438;19.026;2023-01-26T04:40:12;100376.63;;;0.79;100.00
54512;BME280;40419;47.438;19.026;2023-01-26T04:42:39;100364.84;;;0.81;100.00
54512;BME280;40419;47.438;19.026;2023-01-26T04:45:05;100364.00;;;0.81;100.00
54512;BME280;40419;47.438;19.026;2023-01-26T04:47:36;100364.72;;;0.83;100.00
54512;BME280;40419;47.438;19.026;2023-01-26T04:50:04;100368.66;;;1.00;100.00
54512;BME280;40419;47.438;19.026;2023-01-26T04:52:33;100363.44;;;0.77;100.00
54512;BME280;40419;47.438;19.026;2023-01-26T04:54:59;100361.31;;;0.92;100.00
54512;BME280;40419;47.438;19.026;2023-01-26T04:57:29;100357.53;;;0.95;100.00
54512;BME280;40419;47.438;19.026;2023-01-26T04:59:56;100363.91;;;1.03;100.00
54512;BME280;40419;47.438;19.026;2023-01-26T05:02:24;100364.56;;;0.96;100.00
54512;BME280;40419;47.438;19.026;2023-01-26T05:04:52;100367.38;;;0.83;100.00
54512;BME280;40419;47.438;19.026;2023-01-26T05:07:19;100357.41;;;0.96;100.00
54512;BME280;40419;47.438;19.026;2023-01-26T05:09:47;100368.56;;;0.90;100.00
54512;BME280;40419;47.438;19.026;2023-01-26T05:12:29;100364.47;;;0.86;100.00
54512;BME280;40419;47.438;19.026;2023-01-26T05:15:29;100358.16;;;0.87;100.00
54512;BME280;40419;47.438;19.026;2023-01-26T05:18:26;100355.25;;;0.90;100.00
54512;BME280;40419;47.438;19.026;2023-01-26T05:21:02;100353.94;;;0.84;100.00
54512;BME280;40419;47.438;19.026;2023-01-26T05:23:35;100354.94;;;0.83;100.00
54512;BME280;40419;47.438;19.026;2023-01-26T05:26:12;100360.25;;;0.83;100.00
54512;BME280;40419;47.438;19.026;2023-01-26T05:28:57;100365.88;;;1.01;100.00
54512;BME280;40419;47.438;19.026;2023-01-26T05:31:24;100360.06;;;0.96;100.00
54512;BME280;40419;47.438;19.026;2023-01-26T05:33:51;100358.94;;;0.78;100.00
54512;BME280;40419;47.438;19.026;2023-01-26T05:36:20;100368.84;;;0.87;100.00
54512;BME280;40419;47.438;19.026;2023-01-26T05:38:46;100355.56;;;0.76;100.00
54512;BME280;40419;47.438;19.026;2023-01-26T05:41:23;100362.81;;;0.74;100.00
54512;BME280;40419;47.438;19.026;2023-01-26T05:44:07;100366.50;;;0.73;100.00
54512;BME280;40419;47.438;19.026;2023-01-26T05:46:40;100369.34;;;0.81;100.00
54512;BME280;40419;47.438;19.026;2023-01-26T05:49:13;100378.16;;;0.93;100.00
54512;BME280;40419;47.438;19.026;2023-01-26T05:51:42;100368.41;;;0.70;100.00
54512;BME280;40419;47.438;19.026;2023-01-26T05:54:07;100374.34;;;0.74;100.00
54512;BME280;40419;47.438;19.026;2023-01-26T05:56:33;100375.66;;;0.80;100.00
54512;BME280;40419;47.438;19.026;2023-01-26T05:59:04;100375.91;;;0.77;100.00
54512;BME280;40419;47.438;19.026;2023-01-26T06:01:30;100370.38;;;0.68;100.00
54512;BME280;40419;47.438;19.026;2023-01-26T06:04:03;100375.22;;;0.63;100.00
54512;BME280;40419;47.438;19.026;2023-01-26T06:06:36;100370.94;;;0.72;100.00
54512;BME280;40419;47.438;19.026;2023-01-26T06:09:39;100355.56;;;0.76;100.00
54512;BME280;40419;47.438;19.026;2023-01-26T06:12:39;100364.47;;;0.86;100.00
54512;BME280;40419;47.438;19.026;2023-01-26T06:15:25;100365.41;;;0.96;100.00
54512;BME280;40419;47.438;19.026;2023-01-26T06:17:50;100373.50;;;1.06;100.00
54512;BME280;40419;47.438;19.026;2023-01-26T06:20:18;100362.13;;;0.60;100.00
54512;BME280;40419;47.438;19.026;2023-01-26T06:22:52;100373.19;;;0.56;100.00
54512;BME280;40419;47.438;19.026;2023-01-26T06:25:25;100370.81;;;0.74;100.00
54512;BME280;40419;47.438;19.026;2023-01-26T06:27:57;100370.81;;;0.74;100.00
54512;BME280;40419;47.438;19.026;2023-01-26T06:30:30;100380.66;;;0.73;100.00
54512;BME280;40419;47.438;19.026;2023-01-26T06:33:01;100367.31;;;0.73;100.00
54512;BME280;40419;47.438;19.026;2023-01-26T06:35:30;100369.34;;;0.81;100.00
54512;BME280;40419;47.438;19.026;2023-01-26T06:38:01;100369.75;;;0.65;100.00
54512;BME280;40419;47.438;19.026;2023-01-26T06:40:31;100359.06;;;0.76;100.00
54512;BME280;40419;47.438;19.026;2023-01-26T06:42:59;100364.78;;;0.72;100.00
54512;BME280;40419;47.438;19.026;2023-01-26T06:45:27;100362.75;;;0.64;100.00
54512;BME280;40419;47.438;19.026;2023-01-26T06:47:57;100355.63;;;0.85;100.00
54512;BME280;40419;47.438;19.026;2023-01-26T06:50:30;100358.63;;;0.71;100.00
54512;BME280;40419;47.438;19.026;2023-01-26T06:53:03;100358.81;;;0.79;100.00
54512;BME280;40419;47.438;19.026;2023-01-26T06:56:10;100354.75;;;0.64;100.00
54512;BME280;40419;47.438;19.026;2023-01-26T06:58:56;100355.72;;;0.63;100.00
54512;BME280;40419;47.438;19.026;2023-01-26T07:01:41;100359.41;;;0.50;100.00
54512;BME280;40419;47.438;19.026;2023-01-26T07:04:09;100351.16;;;0.53;100.00
54512;BME280;40419;47.438;19.026;2023-01-26T07:06:35;100356.47;;;0.53;100.00
54512;BME280;40419;47.438;19.026;2023-01-26T07:09:01;100358.94;;;0.78;100.00
54512;BME280;40419;47.438;19.026;2023-01-26T07:11:26;100358.50;;;0.73;100.00
54512;BME280;40419;47.438;19.026;2023-01-26T07:13:57;100358.16;;;0.87;100.00
54512;BME280;40419;47.438;19.026;2023-01-26T07:16:30;100354.41;;;0.90;100.00
54512;BME280;40419;47.438;19.026;2023-01-26T07:18:58;100356.31;;;0.66;100.00
54512;BME280;40419;47.438;19.026;2023-01-26T07:21:26;100352.53;;;0.69;100.00
54512;BME280;40419;47.438;19.026;2023-01-26T07:23:51;100348.44;;;0.65;100.00
54512;BME280;40419;47.438;19.026;2023-01-26T07:26:24;100348.28;;;0.78;100.00
54512;BME280;40419;47.438;19.026;2023-01-26T07:28:52;100345.41;;;0.69;100.00
54512;BME280;40419;47.438;19.026;2023-01-26T07:31:20;100343.41;;;0.50;100.00
54512;BME280;40419;47.438;19.026;2023-01-26T07:33:45;100341.75;;;0.70;100.00
54512;BME280;40419;47.438;19.026;2023-01-26T07:36:11;100331.47;;;0.66;100.00
54512;BME280;40419;47.438;19.026;2023-01-26T07:38:36;100337.84;;;0.53;100.00
54512;BME280;40419;47.438;19.026;2023-01-26T07:41:10;100336.56;;;0.69;100.00
54512;BME280;40419;47.438;19.026;2023-01-26T07:43:42;100334.41;;;0.63;100.00
54512;BME280;40419;47.438;19.026;2023-01-26T07:46:10;100335.66;;;0.80;100.00
54512;BME280;40419;47.438;19.026;2023-01-26T07:48:36;100333.56;;;0.62;100.00
54512;BME280;40419;47.438;19.026;2023-01-26T07:51:05;100340.03;;;0.81;100.00
54512;BME280;40419;47.438;19.026;2023-01-26T07:53:36;100342.41;;;0.63;100.00
54512;BME280;40419;47.438;19.026;2023-01-26T07:58:33;100342.44;;;0.51;100.00
54512;BME280;40419;47.438;19.026;2023-01-26T08:01:10;100334.88;;;0.89;100.00
54512;BME280;40419;47.438;19.026;2023-01-26T08:03:41;100337.09;;;0.84;100.00
54512;BME280;40419;47.438;19.026;2023-01-26T08:06:10;100339.31;;;0.79;100.00
54512;BME280;40419;47.438;19.026;2023-01-26T08:08:40;100343.72;;;0.68;100.00
54512;BME280;40419;47.438;19.026;2023-01-26T08:11:07;100338.50;;;0.67;100.00
54512;BME280;40419;47.438;19.026;2023-01-26T08:13:36;100341.91;;;0.90;100.00
54512;BME280;40419;47.438;19.026;2023-01-26T08:16:08;100337.81;;;1.07;100.00
54512;BME280;40419;47.438;19.026;2023-01-26T08:18:43;100347.69;;;0.74;100.00
54512;BME280;40419;47.438;19.026;2023-01-26T08:21:12;100332.03;;;0.81;100.00
54512;BME280;40419;47.438;19.026;2023-01-26T08:23:38;100337.03;;;0.74;100.00
54512;BME280;40419;47.438;19.026;2023-01-26T08:26:06;100335.66;;;0.80;100.00
54512;BME280;40419;47.438;19.026;2023-01-26T08:28:37;100338.53;;;0.88;100.00
54512;BME280;40419;47.438;19.026;2023-01-26T08:33:31;100330.00;;;0.73;100.00
54512;BME280;40419;47.438;19.026;2023-01-26T08:36:00;100333.53;;;0.95;100.00
54512;BME280;40419;47.438;19.026;2023-01-26T08:38:31;100342.97;;;0.66;100.00
54512;BME280;40419;47.438;19.026;2023-01-26T08:40:58;100331.22;;;0.69;100.00
54512;BME280;40419;47.438;19.026;2023-01-26T08:43:27;100344.16;;;0.74;100.00
54512;BME280;40419;47.438;19.026;2023-01-26T08:45:57;100338.63;;;0.65;100.00
54512;BME280;40419;47.438;19.026;2023-01-26T08:48:27;100341.66;;;0.93;100.00
54512;BME280;40419;47.438;19.026;2023-01-26T08:50:59;100332.81;;;0.72;100.00
54512;BME280;40419;47.438;19.026;2023-01-26T08:53:33;100338.41;;;0.57;100.00
54512;BME280;40419;47.438;19.026;2023-01-26T08:56:00;100333.34;;;0.54;100.00
54512;BME280;40419;47.438;19.026;2023-01-26T08:58:26;100341.19;;;0.67;100.00
54512;BME280;40419;47.438;19.026;2023-01-26T09:00:55;100327.41;;;0.83;100.00
54512;BME280;40419;47.438;19.026;2023-01-26T09:03:25;100336.34;;;1.14;100.00
54512;BME280;40419;47.438;19.026;2023-01-26T09:05:53;100337.63;;;0.78;100.00
54512;BME280;40419;47.438;19.026;2023-01-26T09:08:23;100326.50;;;0.73;100.00
54512;BME280;40419;47.438;19.026;2023-01-26T09:10:53;100332.53;;;0.75;100.00
54512;BME280;40419;47.438;19.026;2023-01-26T09:13:21;100343.50;;;1.14;100.00
54512;BME280;40419;47.438;19.026;2023-01-26T09:15:49;100331.84;;;0.94;100.00
54512;BME280;40419;47.438;19.026;2023-01-26T09:18:17;100340.03;;;1.23;100.00
54512;BME280;40419;47.438;19.026;2023-01-26T09:20:44;100330.22;;;1.02;100.00
54512;BME280;40419;47.438;19.026;2023-01-26T09:23:10;100328.31;;;0.93;100.00
54512;BME280;40419;47.438;19.026;2023-01-26T09:25:38;100345.63;;;0.99;100.00
54512;BME280;40419;47.438;19.026;2023-01-26T09:28:09;100335.41;;;0.83;100.00
54512;BME280;40419;47.438;19.026;2023-01-26T09:30:34;100322.94;;;1.04;100.00
54512;BME280;40419;47.438;19.026;2023-01-26T09:33:04;100329.44;;;1.12;100.00
54512;BME280;40419;47.438;19.026;2023-01-26T09:35:33;100331.50;;;0.87;100.00
54512;BME280;40419;47.438;19.026;2023-01-26T09:37:58;100320.81;;;0.98;100.00
54512;BME280;40419;47.438;19.026;2023-01-26T09:43:24;100319.00;;;0.87;100.00
54512;BME280;40419;47.438;19.026;2023-01-26T09:56:40;100304.50;;;1.44;100.00
54512;BME280;40419;47.438;19.026;2023-01-26T10:01:46;100299.84;;;1.15;100.00
54512;BME280;40419;47.438;19.026;2023-01-26T10:04:35;100292.97;;;0.91;100.00
54512;BME280;40419;47.438;19.026;2023-01-26T10:07:09;100283.47;;;0.98;100.00
54512;BME280;40419;47.438;19.026;2023-01-26T10:09:48;100284.63;;;1.05;100.00
54512;BME280;40419;47.438;19.026;2023-01-26T10:12:24;100276.72;;;1.25;100.00
54512;BME280;40419;47.438;19.026;2023-01-26T10:15:05;100283.47;;;1.19;100.00
54512;BME280;40419;47.438;19.026;2023-01-26T10:17:42;100265.50;;;1.21;100.00
54512;BME280;40419;47.438;19.026;2023-01-26T10:22:53;100259.84;;;1.15;100.00
54512;BME280;40419;47.438;19.026;2023-01-26T10:25:25;100258.84;;;1.16;100.00
54512;BME280;40419;47.438;19.026;2023-01-26T10:27:54;100257.47;;;1.21;100.00
54512;BME280;40419;47.438;19.026;2023-01-26T10:30:22;100251.06;;;1.03;100.00
54512;BME280;40419;47.438;19.026;2023-01-26T10:32:50;100252.38;;;0.87;100.00
54512;BME280;40419;47.438;19.026;2023-01-26T10:35:23;100247.72;;;1.32;100.00
54512;BME280;40419;47.438;19.026;2023-01-26T10:37:50;100253.00;;;1.01;100.00
54512;BME280;40419;47.438;19.026;2023-01-26T10:40:19;100247.34;;;1.15;100.00
54512;BME280;40419;47.438;19.026;2023-01-26T10:42:57;100243.59;;;1.18;100.00
54512;BME280;40419;47.438;19.026;2023-01-26T10:45:30;100243.03;;;1.24;100.00
54512;BME280;40419;47.438;19.026;2023-01-26T10:48:25;100237.41;;;0.96;100.00
54512;BME280;40419;47.438;19.026;2023-01-26T10:50:52;100236.34;;;1.09;100.00
54512;BME280;40419;47.438;19.026;2023-01-26T10:53:30;100243.25;;;0.90;100.00
54512;BME280;40419;47.438;19.026;2023-01-26T10:56:04;100234.81;;;0.85;100.00
54512;BME280;40419;47.438;19.026;2023-01-26T11:01:11;100223.41;;;1.04;100.00
54512;BME280;40419;47.438;19.026;2023-01-26T11:04:00;100222.03;;;0.79;100.00
54512;BME280;40419;47.438;19.026;2023-01-26T11:06:30;100222.97;;;0.99;100.00
54512;BME280;40419;47.438;19.026;2023-01-26T11:09:27;100215.69;;;1.01;100.00
54512;BME280;40419;47.438;19.026;2023-01-26T11:12:03;100211.66;;;1.06;100.00
54512;BME280;40419;47.438;19.026;2023-01-26T11:14:32;100220.34;;;1.09;100.00
54512;BME280;40419;47.438;19.026;2023-01-26T11:17:00;100215.47;;;1.14;100.00
54512;BME280;40419;47.438;19.026;2023-01-26T11:21:58;100198.50;;;1.15;100.00
54512;BME280;40419;47.438;19.026;2023-01-26T11:24:38;100196.44;;;1.28;100.00
54512;BME280;40419;47.438;19.026;2023-01-26T11:33:07;100193.91;;;1.27;100.00
54512;BME280;40419;47.438;19.026;2023-01-26T11:38:50;100188.75;;;1.45;100.00
54512;BME280;40419;47.438;19.026;2023-01-26T11:49:59;100168.44;;;1.13;100.00
54512;BME280;40419;47.438;19.026;2023-01-26T12:00:53;100146.09;;;1.54;100.00
54512;BME280;40419;47.438;19.026;2023-01-26T12:03:37;100152.00;;;1.48;100.00
54512;BME280;40419;47.438;19.026;2023-01-26T12:06:17;100144.81;;;1.49;100.00
54512;BME280;40419;47.438;19.026;2023-01-26T12:09:13;100132.44;;;1.38;100.00
54512;BME280;40419;47.438;19.026;2023-01-26T12:11:59;100128.91;;;1.28;100.00
54512;BME280;40419;47.438;19.026;2023-01-26T12:20:35;100127.38;;;1.45;100.00
54512;BME280;40419;47.438;19.026;2023-01-26T12:23:43;100132.63;;;1.56;100.00
54512;BME280;40419;47.438;19.026;2023-01-26T12:26:11;100126.56;;;1.44;100.00
54512;BME280;40419;47.438;19.026;2023-01-26T12:28:45;100125.13;;;1.30;100.00
54512;BME280;40419;47.438;19.026;2023-01-26T12:31:28;100119.69;;;1.61;100.00
54512;BME280;40419;47.438;19.026;2023-01-26T12:33:56;100115.59;;;1.57;100.00
54512;BME280;40419;47.438;19.026;2023-01-26T12:36:38;100118.78;;;1.31;100.00
54512;BME280;40419;47.438;19.026;2023-01-26T12:39:30;100113.31;;;1.23;100.00
54512;BME280;40419;47.438;19.026;2023-01-26T12:42:13;100113.22;;;1.54;100.00
54512;BME280;40419;47.438;19.026;2023-01-26T12:44:54;100109.16;;;1.50;100.00
54512;BME280;40419;47.438;19.026;2023-01-26T12:47:34;100106.00;;;1.25;100.00
54512;BME280;40419;47.438;19.026;2023-01-26T12:50:42;100105.72;;;1.28;100.00
54512;BME280;40419;47.438;19.026;2023-01-26T12:53:26;100101.72;;;1.44;100.00
54512;BME280;40419;47.438;19.026;2023-01-26T12:58:42;100096.47;;;1.32;100.00
54512;BME280;40419;47.438;19.026;2023-01-26T13:01:16;100099.13;;;1.32;100.00
54512;BME280;40419;47.438;19.026;2023-01-26T13:03:57;100102.78;;;1.31;100.00
54512;BME280;40419;47.438;19.026;2023-01-26T13:06:25;100093.06;;;1.20;100.00
54512;BME280;40419;47.438;19.026;2023-01-26T13:11:54;100092.78;;;1.23;100.00
54512;BME280;40419;47.438;19.026;2023-01-26T13:16:55;100090.00;;;1.25;100.00
54512;BME280;40419;47.438;19.026;2023-01-26T13:22:07;100084.41;;;1.48;100.00
54512;BME280;40419;47.438;19.026;2023-01-26T13:29:52;100085.38;;;1.27;100.00
54512;BME280;40419;47.438;19.026;2023-01-26T13:34:59;100091.09;;;1.13;100.00
54512;BME280;40419;47.438;19.026;2023-01-26T13:37:52;100087.03;;;1.28;100.00
54512;BME280;40419;47.438;19.026;2023-01-26T13:40:35;100083.53;;;1.18;100.00
54512;BME280;40419;47.438;19.026;2023-01-26T13:48:49;100087.19;;;1.17;100.00
54512;BME280;40419;47.438;19.026;2023-01-26T13:54:03;100091.78;;;1.05;100.00
54512;BME280;40419;47.438;19.026;2023-01-26T13:56:35;100091.09;;;1.13;100.00
54512;BME280;40419;47.438;19.026;2023-01-26T14:01:44;100078.06;;;1.19;100.00
54512;BME280;40419;47.438;19.026;2023-01-26T14:04:21;100073.16;;;1.24;100.00
54512;BME280;40419;47.438;19.026;2023-01-26T14:12:16;100082.53;;;1.09;100.00
54512;BME280;40419;47.438;19.026;2023-01-26T14:14:45;100076.50;;;1.17;100.00
54512;BME280;40419;47.438;19.026;2023-01-26T14:17:49;100075.03;;;0.93;100.00
54512;BME280;40419;47.438;19.026;2023-01-26T14:20:38;100081.75;;;0.87;100.00
54512;BME280;40419;47.438;19.026;2023-01-26T14:23:12;100083.00;;;0.83;100.00
54512;BME280;40419;47.438;19.026;2023-01-26T14:25:40;100079.66;;;0.91;100.00
54512;BME280;40419;47.438;19.026;2023-01-26T14:28:14;100083.16;;;0.82;100.00
54512;BME280;40419;47.438;19.026;2023-01-26T14:30:42;100074.75;;;0.96;100.00
54512;BME280;40419;47.438;19.026;2023-01-26T14:33:15;100085.00;;;1.01;100.00
54512;BME280;40419;47.438;19.026;2023-01-26T14:35:53;100079.00;;;1.09;100.00
54512;BME280;40419;47.438;19.026;2023-01-26T14:38:19;100079.81;;;0.99;100.00
54512;BME280;40419;47.438;19.026;2023-01-26T14:40:51;100076.03;;;0.92;100.00
54512;BME280;40419;47.438;19.026;2023-01-26T14:43:17;100075.63;;;0.97;100.00
54512;BME280;40419;47.438;19.026;2023-01-26T14:46:07;100069.16;;;0.99;100.00
54512;BME280;40419;47.438;19.026;2023-01-26T14:48:38;100074.66;;;1.08;100.00
54512;BME280;40419;47.438;19.026;2023-01-26T14:51:16;100066.66;;;1.08;100.00
54512;BME280;40419;47.438;19.026;2023-01-26T14:53:51;100072.28;;;1.14;100.00